Home   Weather   Township of Fairfield   Past weeks
Flag for USA

Past Weather in Township of Fairfield, Michigan, USA — Yesterday and Last 2 Weeks

Currently: 64 °F. Scattered clouds. (Weather station: Toledo Suburban Airport, USA). See more current weather

Past Weather in Township of Fairfield — Graph

°F

Township of Fairfield Temperature Yesterday

Maximum temperature yesterday: 63 °F (at 2:55 pm)
Minimum temperature yesterday: 45 °F (at 11:55 pm)
Average temperature yesterday: 53 °F

High & Low Weather Summary for the Past Weeks

 TemperatureHumidityPressure
High82 °F (Apr 7, 4:15 pm)98% (Apr 10, 10:55 pm)30.55 "Hg (Apr 10, 10:55 pm)
Low21 °F (Apr 2, 3:15 am)22% (Apr 2, 4:15 pm)29.38 "Hg (Apr 11, 4:35 am)
Average52 °F63%29.96 "Hg
* Reported Mar 29 2:15 pm — Apr 13 2:55 pm, Township of Fairfield. Weather by CustomWeather, © 2021

Note: Actual official high and low records may vary slightly from our data, if they occured in-between our weather recording intervals... More about our weather records

Township of Fairfield Weather History for the Previous 24 Hours

Scroll right to see more
 ConditionsComfort  
Time TempWeatherWind HumidityBarometerVisibility
2:55 pm
Tue, Apr 13
63 °FSunny.8 mph35%30.05 "Hg10 mi
2:35 pm63 °FScattered clouds.13 mph37%30.06 "Hg10 mi
2:15 pm63 °FSunny.9 mph37%30.06 "Hg10 mi
1:55 pm62 °FSunny.9 mph36%30.07 "Hg10 mi
1:35 pm62 °FSunny.14 mph38%30.07 "Hg10 mi
1:15 pm61 °FSunny.7 mph39%30.07 "Hg10 mi
12:55 pm61 °FSunny.9 mph37%30.08 "Hg10 mi
12:35 pm60 °FSunny.7 mph37%30.08 "Hg10 mi
12:15 pm60 °FSunny.9 mph36%30.09 "Hg10 mi
11:55 am60 °FSunny.12 mph35%30.09 "Hg10 mi
11:35 am59 °FSunny.8 mph36%30.09 "Hg10 mi
11:15 am58 °FSunny.3 mph41%30.09 "Hg10 mi
10:55 am57 °FSunny.8 mph44%30.09 "Hg10 mi
10:35 am56 °FSunny.3 mph49%30.09 "Hg10 mi
10:15 am55 °FSunny.6 mph55%30.09 "Hg10 mi
9:35 am53 °FSunny.No wind60%30.07 "Hg10 mi
9:15 am51 °FSunny.3 mph65%30.08 "Hg10 mi
8:55 am50 °FSunny.No wind71%30.08 "Hg10 mi
8:35 am48 °FSunny.No wind77%30.07 "Hg10 mi
8:15 am45 °FSunny.No wind94%30.07 "Hg10 mi
7:55 am40 °FSunny.No wind97%30.07 "Hg10 mi
7:35 am38 °FSunny.No wind96%30.06 "Hg7 mi
7:15 am38 °FSunny.No wind97%30.06 "Hg10 mi
6:55 am38 °FClear.No wind95%30.05 "Hg7 mi
6:35 am39 °FClear.No wind95%30.04 "Hg10 mi
6:15 am39 °FClear.No wind94%30.04 "Hg10 mi
5:55 am41 °FClear.No wind92%30.03 "Hg10 mi
5:35 am41 °FClear.No wind88%30.03 "Hg10 mi
5:15 am42 °FClear.No wind85%30.02 "Hg10 mi
4:55 am45 °FClear.No wind81%30.02 "Hg10 mi
4:35 am45 °FClear.3 mph82%30.01 "Hg10 mi
4:15 am46 °FClear.3 mph83%30.01 "Hg10 mi
3:55 am44 °FClear.No wind87%30.00 "Hg10 mi
3:35 am44 °FClear.No wind89%30.00 "Hg10 mi
3:15 am43 °FClear.3 mph88%29.99 "Hg10 mi
2:55 am45 °FClear.No wind85%29.98 "Hg10 mi
2:35 am46 °FClear.No wind85%29.98 "Hg10 mi
2:15 am45 °FClear.No wind93%29.98 "Hg10 mi
1:55 am44 °FClear.No wind92%29.98 "Hg10 mi
1:35 am44 °FClear.No wind92%29.97 "Hg10 mi
12:55 am47 °FClear.5 mph94%29.96 "Hg10 mi
12:35 am44 °FClear.No wind95%29.95 "Hg10 mi
12:15 am44 °FClear.No wind95%29.94 "Hg10 mi
11:55 pm
Mon, Apr 12
45 °FClear.No wind95%29.93 "Hg10 mi
11:35 pm45 °FClear.No wind94%29.93 "Hg10 mi
11:15 pm46 °FClear.No wind94%29.92 "Hg10 mi
10:55 pm46 °FClear.No wind93%29.92 "Hg10 mi
10:35 pm48 °FClear.No wind92%29.91 "Hg10 mi
10:15 pm47 °FClear.No wind90%29.90 "Hg10 mi
9:55 pm50 °FClear.No wind86%29.90 "Hg10 mi
9:35 pm51 °FClear.No wind83%29.90 "Hg10 mi
9:15 pm54 °FClear.No wind75%29.89 "Hg10 mi
8:55 pm55 °FClear.No wind73%29.88 "Hg10 mi
8:35 pm57 °FClear.No wind67%29.86 "Hg10 mi
8:15 pm58 °FClear.3 mph65%29.85 "Hg10 mi
7:55 pm59 °FScattered clouds.8 mph64%29.84 "Hg10 mi
7:35 pm60 °FBroken clouds.12 mph65%29.83 "Hg10 mi
7:15 pm61 °FCloudy.12 mph64%29.82 "Hg10 mi
6:55 pm62 °FMore clouds than sun.3 mph62%29.81 "Hg10 mi
6:35 pm62 °FMore clouds than sun.3 mph61%29.80 "Hg10 mi
6:15 pm61 °FMostly cloudy.5 mph63%29.80 "Hg10 mi
5:55 pm61 °FMostly cloudy.3 mph61%29.79 "Hg10 mi
5:35 pm61 °FOvercast.6 mph64%29.78 "Hg10 mi
5:15 pm60 °FOvercast.3 mph65%29.77 "Hg10 mi
4:35 pm61 °FCloudy.7 mph64%29.75 "Hg10 mi
4:15 pm61 °FCloudy.6 mph63%29.74 "Hg10 mi
Weather by CustomWeather, © 2021

See weather overview